sensor_id;sensor_type;location;lat;lon;timestamp;pressure;altitude;pressure_sealevel;temperature;humidity
56392;BME280;76123;53.584;9.978;2024-03-07T00:01:02;102906.19;;;3.50;83.92
56392;BME280;76123;53.584;9.978;2024-03-07T00:03:31;102903.59;;;3.54;83.77
56392;BME280;76123;53.584;9.978;2024-03-07T00:05:58;102908.81;;;3.53;83.15
56392;BME280;76123;53.584;9.978;2024-03-07T00:08:26;102898.44;;;3.60;83.81
56392;BME280;76123;53.584;9.978;2024-03-07T00:10:52;102902.91;;;3.71;83.02
56392;BME280;76123;53.584;9.978;2024-03-07T00:13:19;102908.09;;;3.68;83.27
56392;BME280;76123;53.584;9.978;2024-03-07T00:15:46;102904.66;;;3.72;83.58
56392;BME280;76123;53.584;9.978;2024-03-07T00:18:13;102906.44;;;3.73;83.12
56392;BME280;76123;53.584;9.978;2024-03-07T00:20:41;102907.34;;;3.78;82.82
56392;BME280;76123;53.584;9.978;2024-03-07T00:23:08;102905.69;;;3.86;83.56
56392;BME280;76123;53.584;9.978;2024-03-07T00:25:35;102909.13;;;3.82;82.92
56392;BME280;76123;53.584;9.978;2024-03-07T00:28:01;102910.09;;;3.89;82.68
56392;BME280;76123;53.584;9.978;2024-03-07T00:30:28;102909.19;;;3.87;82.72
56392;BME280;76123;53.584;9.978;2024-03-07T00:32:55;102911.81;;;3.90;83.25
56392;BME280;76123;53.584;9.978;2024-03-07T00:35:22;102915.34;;;3.92;82.58
56392;BME280;76123;53.584;9.978;2024-03-07T00:37:50;102910.16;;;3.95;82.91
56392;BME280;76123;53.584;9.978;2024-03-07T00:40:16;102912.00;;;4.07;82.47
56392;BME280;76123;53.584;9.978;2024-03-07T00:42:43;102913.81;;;4.12;82.22
56392;BME280;76123;53.584;9.978;2024-03-07T00:45:10;102912.00;;;4.07;82.88
56392;BME280;76123;53.584;9.978;2024-03-07T00:47:37;102902.38;;;4.06;82.35
56392;BME280;76123;53.584;9.978;2024-03-07T00:50:04;102897.13;;;4.04;82.92
56392;BME280;76123;53.584;9.978;2024-03-07T00:52:33;102897.28;;;4.20;82.49
56392;BME280;76123;53.584;9.978;2024-03-07T00:55:02;102898.97;;;4.14;82.60
56392;BME280;76123;53.584;9.978;2024-03-07T00:57:29;102896.31;;;4.10;83.35
56392;BME280;76123;53.584;9.978;2024-03-07T00:59:55;102896.31;;;4.13;82.96
56392;BME280;76123;53.584;9.978;2024-03-07T01:02:22;102899.81;;;4.10;82.93
56392;BME280;76123;53.584;9.978;2024-03-07T01:04:48;102898.06;;;4.09;83.12
56392;BME280;76123;53.584;9.978;2024-03-07T01:07:15;102902.47;;;4.13;83.08
56392;BME280;76123;53.584;9.978;2024-03-07T01:09:42;102898.97;;;4.14;83.31
56392;BME280;76123;53.584;9.978;2024-03-07T01:12:09;102898.22;;;4.25;83.22
56392;BME280;76123;53.584;9.978;2024-03-07T01:14:36;102898.22;;;4.25;82.93
56392;BME280;76123;53.584;9.978;2024-03-07T01:17:03;102895.53;;;4.23;82.61
56392;BME280;76123;53.584;9.978;2024-03-07T01:19:32;102897.31;;;4.26;82.94
56392;BME280;76123;53.584;9.978;2024-03-07T01:21:59;102891.19;;;4.22;83.16
56392;BME280;76123;53.584;9.978;2024-03-07T01:24:25;102894.69;;;4.26;82.84
56392;BME280;76123;53.584;9.978;2024-03-07T01:26:52;102880.75;;;4.28;83.45
56392;BME280;76123;53.584;9.978;2024-03-07T01:29:20;102881.63;;;4.29;83.00
56392;BME280;76123;53.584;9.978;2024-03-07T01:31:46;102893.00;;;4.29;83.00
56392;BME280;76123;53.584;9.978;2024-03-07T01:34:14;102888.72;;;4.41;82.68
56392;BME280;76123;53.584;9.978;2024-03-07T01:36:40;102885.19;;;4.39;82.54
56392;BME280;76123;53.584;9.978;2024-03-07T01:39:07;102875.53;;;4.33;82.54
56392;BME280;76123;53.584;9.978;2024-03-07T01:41:35;102874.78;;;4.46;82.11
56392;BME280;76123;53.584;9.978;2024-03-07T01:44:02;102869.41;;;4.31;82.89
56392;BME280;76123;53.584;9.978;2024-03-07T01:46:30;102873.75;;;4.30;83.05
56392;BME280;76123;53.584;9.978;2024-03-07T01:48:57;102880.78;;;4.36;82.80
56392;BME280;76123;53.584;9.978;2024-03-07T01:51:24;102879.91;;;4.32;82.29
56392;BME280;76123;53.584;9.978;2024-03-07T01:53:52;102890.38;;;4.28;83.14
56392;BME280;76123;53.584;9.978;2024-03-07T01:56:19;102880.78;;;4.31;82.45
56392;BME280;76123;53.584;9.978;2024-03-07T01:58:47;102889.56;;;4.40;82.51
56392;BME280;76123;53.584;9.978;2024-03-07T02:01:14;102884.38;;;4.47;82.04
56392;BME280;76123;53.584;9.978;2024-03-07T02:03:42;102886.09;;;4.42;81.91
56392;BME280;76123;53.584;9.978;2024-03-07T02:06:08;102886.91;;;4.33;82.56
56392;BME280;76123;53.584;9.978;2024-03-07T02:08:35;102877.28;;;4.32;82.16
56392;BME280;76123;53.584;9.978;2024-03-07T02:11:02;102879.09;;;4.38;81.91
56392;BME280;76123;53.584;9.978;2024-03-07T02:13:28;102875.53;;;4.31;82.45
56392;BME280;76123;53.584;9.978;2024-03-07T02:15:57;102866.81;;;4.35;82.09
56392;BME280;76123;53.584;9.978;2024-03-07T02:18:24;102865.84;;;4.24;82.08
56392;BME280;76123;53.584;9.978;2024-03-07T02:20:53;102863.25;;;4.27;82.36
56392;BME280;76123;53.584;9.978;2024-03-07T02:23:20;102876.38;;;4.27;82.58
56392;BME280;76123;53.584;9.978;2024-03-07T02:25:46;102859.91;;;4.42;81.55
56392;BME280;76123;53.584;9.978;2024-03-07T02:28:13;102867.66;;;4.30;81.84
56392;BME280;76123;53.584;9.978;2024-03-07T02:30:39;102867.66;;;4.30;82.32
56392;BME280;76123;53.584;9.978;2024-03-07T02:33:06;102867.66;;;4.30;82.05
56392;BME280;76123;53.584;9.978;2024-03-07T02:35:33;102864.19;;;4.34;82.29
56392;BME280;76123;53.584;9.978;2024-03-07T02:38:02;102860.78;;;4.46;81.13
56392;BME280;76123;53.584;9.978;2024-03-07T02:40:29;102865.19;;;4.51;81.01
56392;BME280;76123;53.584;9.978;2024-03-07T02:42:56;102845.84;;;4.35;81.16
56392;BME280;76123;53.584;9.978;2024-03-07T02:45:22;102849.28;;;4.25;81.56
56392;BME280;76123;53.584;9.978;2024-03-07T02:47:49;102848.47;;;4.31;81.40
56392;BME280;76123;53.584;9.978;2024-03-07T02:50:17;102840.56;;;4.26;81.58
56392;BME280;76123;53.584;9.978;2024-03-07T02:52:43;102849.28;;;4.27;81.75
56392;BME280;76123;53.584;9.978;2024-03-07T02:55:11;102851.94;;;4.28;81.50
56392;BME280;76123;53.584;9.978;2024-03-07T02:57:38;102851.94;;;4.33;81.40
56392;BME280;76123;53.584;9.978;2024-03-07T03:00:06;102848.44;;;4.26;81.43
56392;BME280;76123;53.584;9.978;2024-03-07T03:02:44;102850.97;;;4.22;80.95
56392;BME280;76123;53.584;9.978;2024-03-07T03:05:11;102850.16;;;4.26;81.03
56392;BME280;76123;53.584;9.978;2024-03-07T03:07:38;102858.91;;;4.25;80.89
56392;BME280;76123;53.584;9.978;2024-03-07T03:10:06;102845.84;;;4.31;80.44
56392;BME280;76123;53.584;9.978;2024-03-07T03:12:37;102849.28;;;4.24;80.35
56392;BME280;76123;53.584;9.978;2024-03-07T03:15:04;102851.97;;;4.34;79.84
56392;BME280;76123;53.584;9.978;2024-03-07T03:17:31;102846.66;;;4.24;80.05
56392;BME280;76123;53.584;9.978;2024-03-07T03:19:58;102842.22;;;4.15;80.64
56392;BME280;76123;53.584;9.978;2024-03-07T03:22:24;102840.50;;;4.18;80.14
56392;BME280;76123;53.584;9.978;2024-03-07T03:24:52;102845.72;;;4.18;80.35
56392;BME280;76123;53.584;9.978;2024-03-07T03:27:20;102844.00;;;4.19;80.41
56392;BME280;76123;53.584;9.978;2024-03-07T03:29:48;102835.25;;;4.22;80.57
56392;BME280;76123;53.584;9.978;2024-03-07T03:32:16;102842.25;;;4.18;79.73
56392;BME280;76123;53.584;9.978;2024-03-07T03:34:42;102846.69;;;4.28;79.36
56392;BME280;76123;53.584;9.978;2024-03-07T03:37:09;102843.13;;;4.20;79.83
56392;BME280;76123;53.584;9.978;2024-03-07T03:39:36;102837.00;;;4.20;80.08
56392;BME280;76123;53.584;9.978;2024-03-07T03:42:03;102834.38;;;4.16;79.38
56392;BME280;76123;53.584;9.978;2024-03-07T03:44:32;102834.38;;;4.20;79.21
56392;BME280;76123;53.584;9.978;2024-03-07T03:47:00;102833.47;;;4.14;79.15
56392;BME280;76123;53.584;9.978;2024-03-07T03:49:29;102836.13;;;4.16;79.40
56392;BME280;76123;53.584;9.978;2024-03-07T03:51:56;102833.44;;;4.10;78.67
56392;BME280;76123;53.584;9.978;2024-03-07T03:54:23;102836.88;;;4.04;79.47
56392;BME280;76123;53.584;9.978;2024-03-07T03:56:49;102836.78;;;3.92;79.67
56392;BME280;76123;53.584;9.978;2024-03-07T03:59:16;102836.81;;;3.96;79.63
56392;BME280;76123;53.584;9.978;2024-03-07T04:01:42;102844.69;;;3.99;79.31
56392;BME280;76123;53.584;9.978;2024-03-07T04:04:11;102840.28;;;3.94;80.09
56392;BME280;76123;53.584;9.978;2024-03-07T04:06:38;102839.44;;;3.96;79.39
56392;BME280;76123;53.584;9.978;2024-03-07T04:09:05;102835.00;;;3.89;79.25
56392;BME280;76123;53.584;9.978;2024-03-07T04:11:32;102841.03;;;3.79;79.56
56392;BME280;76123;53.584;9.978;2024-03-07T04:13:59;102836.66;;;3.79;80.08
56392;BME280;76123;53.584;9.978;2024-03-07T04:16:26;102840.09;;;3.75;80.25
56392;BME280;76123;53.584;9.978;2024-03-07T04:18:53;102843.66;;;3.79;79.83
56392;BME280;76123;53.584;9.978;2024-03-07T04:21:21;102845.28;;;3.68;79.68
56392;BME280;76123;53.584;9.978;2024-03-07T04:23:47;102842.69;;;3.72;79.94
56392;BME280;76123;53.584;9.978;2024-03-07T04:26:14;102848.84;;;3.73;79.42
56392;BME280;76123;53.584;9.978;2024-03-07T04:28:41;102847.97;;;3.75;79.74
56392;BME280;76123;53.584;9.978;2024-03-07T04:31:07;102854.06;;;3.73;79.61
56392;BME280;76123;53.584;9.978;2024-03-07T04:33:35;102847.94;;;3.72;78.57
56392;BME280;76123;53.584;9.978;2024-03-07T04:36:01;102850.53;;;3.69;79.03
56392;BME280;76123;53.584;9.978;2024-03-07T04:38:29;102853.06;;;3.60;78.44
56392;BME280;76123;53.584;9.978;2024-03-07T04:40:56;102848.69;;;3.60;78.49
56392;BME280;76123;53.584;9.978;2024-03-07T04:43:22;102853.78;;;3.46;78.22
56392;BME280;76123;53.584;9.978;2024-03-07T04:45:51;102850.38;;;3.55;78.97
56392;BME280;76123;53.584;9.978;2024-03-07T04:48:18;102851.22;;;3.51;78.97
56392;BME280;76123;53.584;9.978;2024-03-07T04:50:44;102845.09;;;3.49;79.37
56392;BME280;76123;53.584;9.978;2024-03-07T04:53:11;102845.19;;;3.57;78.90
56392;BME280;76123;53.584;9.978;2024-03-07T04:55:39;102849.41;;;3.44;78.80
56392;BME280;76123;53.584;9.978;2024-03-07T04:58:06;102843.31;;;3.48;78.42
56392;BME280;76123;53.584;9.978;2024-03-07T05:00:33;102839.91;;;3.55;77.64
56392;BME280;76123;53.584;9.978;2024-03-07T05:02:59;102846.78;;;3.44;78.07
56392;BME280;76123;53.584;9.978;2024-03-07T05:05:26;102846.84;;;3.52;77.26
56392;BME280;76123;53.584;9.978;2024-03-07T05:07:52;102840.59;;;3.36;77.85
56392;BME280;76123;53.584;9.978;2024-03-07T05:10:20;102842.38;;;3.40;77.36
56392;BME280;76123;53.584;9.978;2024-03-07T05:12:49;102846.56;;;3.24;77.84
56392;BME280;76123;53.584;9.978;2024-03-07T05:15:16;102841.38;;;3.28;77.53
56392;BME280;76123;53.584;9.978;2024-03-07T05:17:42;102845.78;;;3.33;77.62
56392;BME280;76123;53.584;9.978;2024-03-07T05:20:09;102845.75;;;3.29;77.39
56392;BME280;76123;53.584;9.978;2024-03-07T05:22:38;102850.91;;;3.25;77.15
56392;BME280;76123;53.584;9.978;2024-03-07T05:25:06;102851.81;;;3.27;76.89
56392;BME280;76123;53.584;9.978;2024-03-07T05:27:33;102861.00;;;2.95;76.68
56392;BME280;76123;53.584;9.978;2024-03-07T05:30:03;102869.00;;;3.05;77.44
56392;BME280;76123;53.584;9.978;2024-03-07T05:32:30;102869.03;;;3.08;77.17
56392;BME280;76123;53.584;9.978;2024-03-07T05:34:59;102867.09;;;2.96;75.65
56392;BME280;76123;53.584;9.978;2024-03-07T05:37:26;102871.38;;;2.88;76.25
56392;BME280;76123;53.584;9.978;2024-03-07T05:39:53;102867.06;;;2.91;76.58
56392;BME280;76123;53.584;9.978;2024-03-07T05:42:19;102873.97;;;2.85;75.87
56392;BME280;76123;53.584;9.978;2024-03-07T05:44:46;102875.66;;;2.83;75.32
56392;BME280;76123;53.584;9.978;2024-03-07T05:47:14;102877.25;;;2.73;75.09
56392;BME280;76123;53.584;9.978;2024-03-07T05:49:42;102881.72;;;2.80;75.87
56392;BME280;76123;53.584;9.978;2024-03-07T05:52:09;102882.59;;;2.81;75.57
56392;BME280;76123;53.584;9.978;2024-03-07T05:54:35;102887.00;;;2.83;75.27
56392;BME280;76123;53.584;9.978;2024-03-07T05:57:02;102886.81;;;2.71;74.57
56392;BME280;76123;53.584;9.978;2024-03-07T05:59:31;102884.25;;;2.75;75.00
56392;BME280;76123;53.584;9.978;2024-03-07T06:01:57;102891.19;;;2.70;74.68
56392;BME280;76123;53.584;9.978;2024-03-07T06:04:26;102891.31;;;2.81;74.34
56392;BME280;76123;53.584;9.978;2024-03-07T06:06:52;102885.06;;;2.70;74.91
56392;BME280;76123;53.584;9.978;2024-03-07T06:09:19;102879.75;;;2.65;74.58
56392;BME280;76123;53.584;9.978;2024-03-07T06:11:48;102880.53;;;2.59;75.07
56392;BME280;76123;53.584;9.978;2024-03-07T06:14:15;102879.63;;;2.56;74.66
56392;BME280;76123;53.584;9.978;2024-03-07T06:16:42;102880.47;;;2.55;74.91
56392;BME280;76123;53.584;9.978;2024-03-07T06:19:09;102890.19;;;2.62;74.95
56392;BME280;76123;53.584;9.978;2024-03-07T06:21:38;102885.00;;;2.67;74.47
56392;BME280;76123;53.584;9.978;2024-03-07T06:24:06;102884.09;;;2.62;75.19
56392;BME280;76123;53.584;9.978;2024-03-07T06:26:38;102887.66;;;2.70;74.46
56392;BME280;76123;53.584;9.978;2024-03-07T06:29:13;102890.16;;;2.60;75.01
56392;BME280;76123;53.584;9.978;2024-03-07T06:31:41;102894.50;;;2.60;74.90
56392;BME280;76123;53.584;9.978;2024-03-07T06:34:08;102893.63;;;2.59;73.92
56392;BME280;76123;53.584;9.978;2024-03-07T06:36:35;102886.72;;;2.63;73.90
56392;BME280;76123;53.584;9.978;2024-03-07T06:39:03;102899.88;;;2.69;74.70
56392;BME280;76123;53.584;9.978;2024-03-07T06:41:31;102900.72;;;2.70;73.55
56392;BME280;76123;53.584;9.978;2024-03-07T06:43:58;102910.22;;;2.62;73.63
56392;BME280;76123;53.584;9.978;2024-03-07T06:46:25;102905.84;;;2.60;73.04
56392;BME280;76123;53.584;9.978;2024-03-07T06:48:52;102906.53;;;2.49;73.29
56392;BME280;76123;53.584;9.978;2024-03-07T06:51:19;102911.66;;;2.44;74.56
56392;BME280;76123;53.584;9.978;2024-03-07T06:53:45;102907.34;;;2.46;74.72
56392;BME280;76123;53.584;9.978;2024-03-07T06:56:14;102910.13;;;2.58;74.19
56392;BME280;76123;53.584;9.978;2024-03-07T06:58:41;102915.38;;;2.58;74.35
56392;BME280;76123;53.584;9.978;2024-03-07T07:01:08;102920.75;;;2.66;74.60
56392;BME280;76123;53.584;9.978;2024-03-07T07:03:37;102907.66;;;2.66;73.90
56392;BME280;76123;53.584;9.978;2024-03-07T07:06:04;102912.34;;;2.89;72.60
56392;BME280;76123;53.584;9.978;2024-03-07T07:08:32;102914.00;;;2.82;73.13
56392;BME280;76123;53.584;9.978;2024-03-07T07:10:59;102918.41;;;2.86;72.56
56392;BME280;76123;53.584;9.978;2024-03-07T07:13:27;102919.38;;;2.93;71.90
56392;BME280;76123;53.584;9.978;2024-03-07T07:15:53;102917.53;;;2.86;72.21
56392;BME280;76123;53.584;9.978;2024-03-07T07:18:20;102913.97;;;2.81;71.56
56392;BME280;76123;53.584;9.978;2024-03-07T07:20:49;102918.47;;;2.89;71.00
56392;BME280;76123;53.584;9.978;2024-03-07T07:23:17;102922.72;;;2.83;70.97
56392;BME280;76123;53.584;9.978;2024-03-07T07:25:44;102916.69;;;2.88;71.78
56392;BME280;76123;53.584;9.978;2024-03-07T07:28:11;102920.94;;;2.82;71.39
56392;BME280;76123;53.584;9.978;2024-03-07T07:30:40;102914.88;;;2.84;71.25
56392;BME280;76123;53.584;9.978;2024-03-07T07:33:06;102908.13;;;2.99;71.11
56392;BME280;76123;53.584;9.978;2024-03-07T07:35:33;102912.53;;;3.03;71.00
56392;BME280;76123;53.584;9.978;2024-03-07T07:37:59;102909.88;;;2.98;71.62
56392;BME280;76123;53.584;9.978;2024-03-07T07:40:26;102918.78;;;3.12;70.10
56392;BME280;76123;53.584;9.978;2024-03-07T07:42:53;102914.28;;;3.02;70.52
56392;BME280;76123;53.584;9.978;2024-03-07T07:45:21;102910.72;;;2.97;70.53
56392;BME280;76123;53.584;9.978;2024-03-07T07:47:50;102915.31;;;3.12;69.11
56392;BME280;76123;53.584;9.978;2024-03-07T07:50:19;102913.56;;;3.14;69.88
56392;BME280;76123;53.584;9.978;2024-03-07T07:52:47;102915.34;;;3.17;68.76
56392;BME280;76123;53.584;9.978;2024-03-07T07:55:15;102916.97;;;3.07;69.15
56392;BME280;76123;53.584;9.978;2024-03-07T07:57:42;102921.44;;;3.16;69.26
56392;BME280;76123;53.584;9.978;2024-03-07T08:00:12;102912.78;;;3.21;68.99
56392;BME280;76123;53.584;9.978;2024-03-07T08:02:50;102921.25;;;3.03;69.87
56392;BME280;76123;53.584;9.978;2024-03-07T08:05:17;102914.41;;;3.13;69.32
56392;BME280;76123;53.584;9.978;2024-03-07T08:07:44;102911.94;;;3.22;68.93
56392;BME280;76123;53.584;9.978;2024-03-07T08:10:11;102912.00;;;3.28;67.90
56392;BME280;76123;53.584;9.978;2024-03-07T08:12:37;102907.84;;;3.43;67.44
56392;BME280;76123;53.584;9.978;2024-03-07T08:15:07;102906.22;;;3.54;67.21
56392;BME280;76123;53.584;9.978;2024-03-07T08:17:41;102906.19;;;3.50;67.63
56392;BME280;76123;53.584;9.978;2024-03-07T08:20:15;102907.06;;;3.53;67.09
56392;BME280;76123;53.584;9.978;2024-03-07T08:22:44;102906.22;;;3.53;67.49
56392;BME280;76123;53.584;9.978;2024-03-07T08:25:12;102905.19;;;3.41;68.13
56392;BME280;76123;53.584;9.978;2024-03-07T08:27:40;102898.22;;;3.42;67.82
56392;BME280;76123;53.584;9.978;2024-03-07T08:30:08;102901.75;;;3.44;68.51
56392;BME280;76123;53.584;9.978;2024-03-07T08:32:38;102912.09;;;3.36;68.82
56392;BME280;76123;53.584;9.978;2024-03-07T08:35:06;102900.09;;;3.54;67.87
56392;BME280;76123;53.584;9.978;2024-03-07T08:37:36;102897.41;;;3.47;68.25
56392;BME280;76123;53.584;9.978;2024-03-07T08:40:04;102895.88;;;3.67;67.91
56392;BME280;76123;53.584;9.978;2024-03-07T08:42:32;102907.56;;;3.99;66.76
56392;BME280;76123;53.584;9.978;2024-03-07T08:44:59;102902.31;;;3.98;66.52
56392;BME280;76123;53.584;9.978;2024-03-07T08:47:26;102898.84;;;4.00;66.71
56392;BME280;76123;53.584;9.978;2024-03-07T08:49:53;102892.84;;;4.11;66.34
56392;BME280;76123;53.584;9.978;2024-03-07T08:52:20;102899.00;;;4.16;66.19
56392;BME280;76123;53.584;9.978;2024-03-07T08:54:49;102890.44;;;4.37;65.19
56392;BME280;76123;53.584;9.978;2024-03-07T08:57:15;102892.34;;;4.60;64.05
56392;BME280;76123;53.584;9.978;2024-03-07T08:59:43;102892.38;;;4.67;63.52
56392;BME280;76123;53.584;9.978;2024-03-07T09:02:10;102901.16;;;4.68;63.41
56392;BME280;76123;53.584;9.978;2024-03-07T09:04:37;102903.63;;;4.46;64.01
56392;BME280;76123;53.584;9.978;2024-03-07T09:07:04;102900.91;;;4.37;64.34
56392;BME280;76123;53.584;9.978;2024-03-07T09:09:31;102903.63;;;4.49;63.94
56392;BME280;76123;53.584;9.978;2024-03-07T09:12:00;102907.97;;;4.46;63.75
56392;BME280;76123;53.584;9.978;2024-03-07T09:14:27;102896.47;;;4.30;63.89
56392;BME280;76123;53.584;9.978;2024-03-07T09:16:53;102904.31;;;4.25;64.33
56392;BME280;76123;53.584;9.978;2024-03-07T09:19:20;102906.81;;;4.13;64.48
56392;BME280;76123;53.584;9.978;2024-03-07T09:21:50;102907.63;;;4.07;64.91
56392;BME280;76123;53.584;9.978;2024-03-07T09:24:18;102903.28;;;4.08;65.86
56392;BME280;76123;53.584;9.978;2024-03-07T09:26:47;102899.75;;;4.06;66.66
56392;BME280;76123;53.584;9.978;2024-03-07T09:29:15;102901.34;;;3.90;66.89
56392;BME280;76123;53.584;9.978;2024-03-07T09:31:41;102898.66;;;3.80;68.25
56392;BME280;76123;53.584;9.978;2024-03-07T09:34:08;102896.03;;;3.80;68.76
56392;BME280;76123;53.584;9.978;2024-03-07T09:36:34;102893.19;;;3.60;70.24
56392;BME280;76123;53.584;9.978;2024-03-07T09:39:01;102894.84;;;3.54;70.31
56392;BME280;76123;53.584;9.978;2024-03-07T09:41:28;102898.47;;;3.65;70.53
56392;BME280;76123;53.584;9.978;2024-03-07T09:43:56;102896.00;;;3.76;70.67
56392;BME280;76123;53.584;9.978;2024-03-07T09:46:25;102894.31;;;3.86;69.83
56392;BME280;76123;53.584;9.978;2024-03-07T09:48:52;102892.63;;;3.89;70.60
56392;BME280;76123;53.584;9.978;2024-03-07T09:51:20;102892.63;;;3.91;70.31
56392;BME280;76123;53.584;9.978;2024-03-07T09:53:48;102891.75;;;3.89;70.68
56392;BME280;76123;53.584;9.978;2024-03-07T09:56:17;102890.66;;;3.68;70.80
56392;BME280;76123;53.584;9.978;2024-03-07T09:58:49;102892.22;;;4.43;75.62
56392;BME280;76123;53.584;9.978;2024-03-07T10:01:15;102893.84;;;4.28;70.62
56392;BME280;76123;53.584;9.978;2024-03-07T10:03:47;102889.38;;;4.13;70.36
56392;BME280;76123;53.584;9.978;2024-03-07T10:06:16;102890.34;;;4.26;70.10
56392;BME280;76123;53.584;9.978;2024-03-07T10:08:44;102890.25;;;4.18;70.41
56392;BME280;76123;53.584;9.978;2024-03-07T10:11:10;102888.53;;;4.16;71.06
56392;BME280;76123;53.584;9.978;2024-03-07T10:13:39;102890.25;;;4.18;70.19
56392;BME280;76123;53.584;9.978;2024-03-07T10:16:07;102878.00;;;4.13;71.27
56392;BME280;76123;53.584;9.978;2024-03-07T10:18:41;102877.16;;;4.18;71.04
56392;BME280;76123;53.584;9.978;2024-03-07T10:21:09;102878.09;;;4.25;71.19
56392;BME280;76123;53.584;9.978;2024-03-07T10:23:36;102884.19;;;4.21;71.20
56392;BME280;76123;53.584;9.978;2024-03-07T10:26:04;102876.34;;;4.24;71.27
56392;BME280;76123;53.584;9.978;2024-03-07T10:28:31;102876.34;;;4.23;70.95
56392;BME280;76123;53.584;9.978;2024-03-07T10:30:58;102872.84;;;4.24;71.39
56392;BME280;76123;53.584;9.978;2024-03-07T10:33:27;102877.34;;;4.42;71.09
56392;BME280;76123;53.584;9.978;2024-03-07T10:35:54;102873.88;;;4.43;70.35
56392;BME280;76123;53.584;9.978;2024-03-07T10:38:22;102873.06;;;4.50;70.63
56392;BME280;76123;53.584;9.978;2024-03-07T10:40:53;102873.06;;;4.53;70.25
56392;BME280;76123;53.584;9.978;2024-03-07T10:43:24;102865.28;;;4.61;70.12
56392;BME280;76123;53.584;9.978;2024-03-07T10:45:55;102870.66;;;4.84;69.56
56392;BME280;76123;53.584;9.978;2024-03-07T10:48:28;102871.41;;;4.67;69.93
56392;BME280;76123;53.584;9.978;2024-03-07T10:51:04;102868.91;;;4.83;69.57
56392;BME280;76123;53.584;9.978;2024-03-07T10:53:41;102864.53;;;4.90;69.13
56392;BME280;76123;53.584;9.978;2024-03-07T10:56:29;102862.81;;;4.95;69.31
56392;BME280;76123;53.584;9.978;2024-03-07T10:59:06;102865.53;;;5.10;69.13
56392;BME280;76123;53.584;9.978;2024-03-07T11:01:39;102856.84;;;5.34;68.06
56392;BME280;76123;53.584;9.978;2024-03-07T11:04:07;102859.47;;;5.24;68.13
56392;BME280;76123;53.584;9.978;2024-03-07T11:06:34;102863.00;;;5.27;68.50
56392;BME280;76123;53.584;9.978;2024-03-07T11:09:05;102850.75;;;5.37;68.11
56392;BME280;76123;53.584;9.978;2024-03-07T11:11:37;102861.22;;;5.28;68.53
56392;BME280;76123;53.584;9.978;2024-03-07T11:14:06;102853.44;;;5.52;67.82
56392;BME280;76123;53.584;9.978;2024-03-07T11:16:36;102850.84;;;5.66;67.24
56392;BME280;76123;53.584;9.978;2024-03-07T11:19:19;102851.75;;;5.79;66.90
56392;BME280;76123;53.584;9.978;2024-03-07T11:21:47;102843.84;;;5.79;66.88
56392;BME280;76123;53.584;9.978;2024-03-07T11:24:26;102852.59;;;5.84;67.07
56392;BME280;76123;53.584;9.978;2024-03-07T11:26:55;102849.94;;;5.66;67.66
56392;BME280;76123;53.584;9.978;2024-03-07T11:29:39;102842.91;;;5.43;68.16
56392;BME280;76123;53.584;9.978;2024-03-07T11:32:11;102835.84;;;5.27;69.22
56392;BME280;76123;53.584;9.978;2024-03-07T11:34:39;102833.31;;;5.59;68.35
56392;BME280;76123;53.584;9.978;2024-03-07T11:37:08;102821.94;;;5.66;67.71
56392;BME280;76123;53.584;9.978;2024-03-07T11:39:44;102830.66;;;5.54;67.97
56392;BME280;76123;53.584;9.978;2024-03-07T11:42:28;102828.94;;;5.69;68.36
56392;BME280;76123;53.584;9.978;2024-03-07T11:44:56;102820.22;;;5.85;68.13
56392;BME280;76123;53.584;9.978;2024-03-07T11:47:23;102828.97;;;5.97;67.25
56392;BME280;76123;53.584;9.978;2024-03-07T11:49:51;102823.75;;;6.03;66.73
56392;BME280;76123;53.584;9.978;2024-03-07T11:52:18;102822.84;;;5.99;67.17
56392;BME280;76123;53.584;9.978;2024-03-07T11:54:46;102822.84;;;5.93;66.77
56392;BME280;76123;53.584;9.978;2024-03-07T11:57:16;102822.81;;;5.96;67.39
56392;BME280;76123;53.584;9.978;2024-03-07T11:59:45;102812.34;;;5.99;67.53
56392;BME280;76123;53.584;9.978;2024-03-07T12:02:12;102815.88;;;6.04;67.32
56392;BME280;76123;53.584;9.978;2024-03-07T12:04:41;102815.00;;;6.12;66.88
56392;BME280;76123;53.584;9.978;2024-03-07T12:07:08;102807.97;;;6.14;66.44
56392;BME280;76123;53.584;9.978;2024-03-07T12:09:37;102809.75;;;6.07;67.18
56392;BME280;76123;53.584;9.978;2024-03-07T12:12:08;102804.47;;;6.08;66.44
56392;BME280;76123;53.584;9.978;2024-03-07T12:14:35;102796.59;;;6.07;67.34
56392;BME280;76123;53.584;9.978;2024-03-07T12:17:02;102801.84;;;6.13;66.96
56392;BME280;76123;53.584;9.978;2024-03-07T12:19:31;102794.84;;;6.04;67.05
56392;BME280;76123;53.584;9.978;2024-03-07T12:22:00;102791.31;;;6.19;66.96
56392;BME280;76123;53.584;9.978;2024-03-07T12:24:28;102786.06;;;6.30;66.39
56392;BME280;76123;53.584;9.978;2024-03-07T12:27:04;102785.19;;;6.31;66.05
56392;BME280;76123;53.584;9.978;2024-03-07T12:29:32;102783.41;;;6.21;66.98
56392;BME280;76123;53.584;9.978;2024-03-07T12:31:59;102785.19;;;6.31;66.62
56392;BME280;76123;53.584;9.978;2024-03-07T12:34:26;102778.19;;;6.18;66.89
56392;BME280;76123;53.584;9.978;2024-03-07T12:36:55;102774.69;;;6.16;67.02
56392;BME280;76123;53.584;9.978;2024-03-07T12:39:22;102778.19;;;6.16;66.99
56392;BME280;76123;53.584;9.978;2024-03-07T12:41:51;102778.22;;;6.04;67.66
56392;BME280;76123;53.584;9.978;2024-03-07T12:44:19;102768.56;;;6.06;66.75
56392;BME280;76123;53.584;9.978;2024-03-07T12:46:48;102770.31;;;6.13;67.24
56392;BME280;76123;53.584;9.978;2024-03-07T12:49:14;102766.81;;;6.17;67.11
56392;BME280;76123;53.584;9.978;2024-03-07T12:51:42;102765.03;;;6.18;67.46
56392;BME280;76123;53.584;9.978;2024-03-07T12:54:09;102763.22;;;6.38;66.65
56392;BME280;76123;53.584;9.978;2024-03-07T12:56:36;102767.66;;;6.29;66.83
56392;BME280;76123;53.584;9.978;2024-03-07T12:59:03;102764.16;;;6.19;67.12
56392;BME280;76123;53.584;9.978;2024-03-07T13:01:29;102765.91;;;6.15;66.74
56392;BME280;76123;53.584;9.978;2024-03-07T13:04:00;102758.00;;;6.41;66.69